Terminal Aerodrome Forecast
Issued by NWS Albany, NY

Home | Current Version | Previous Version | Text Only | Print | Product List | Glossary On
Versions: 1 2 3 4 5 6 7 8 9 10 11 12 13 14 15 16 17 18 19 20 21 22
789
FTUS41 KALY 270520
TAFALB
TAF
KALB 270520Z 2706/2806 17009KT P6SM VCSH OVC020
      TEMPO 2708/2710 5SM -RA BR OVC015
     FM271000 15007KT 2SM -RA BR OVC010
     FM271800 18005KT P6SM VCSH OVC010 PROB30 2718/2722 4SM -RA
      OVC005
     FM280000 17003KT 5SM BR VCSH OVC006=

USA.gov is the U.S. government's official web portal to all federal, state and local government web resources and services.